sensor_id;sensor_type;location;lat;lon;timestamp;temperature;humidity
13049;DHT22;6591;51.446;5.404;2023-05-07T00:02:06;16.00;99.90
13049;DHT22;6591;51.446;5.404;2023-05-07T00:04:34;15.80;99.90
13049;DHT22;6591;51.446;5.404;2023-05-07T00:07:04;16.10;99.90
13049;DHT22;6591;51.446;5.404;2023-05-07T00:09:32;16.60;99.90
13049;DHT22;6591;51.446;5.404;2023-05-07T00:11:59;16.00;99.90
13049;DHT22;6591;51.446;5.404;2023-05-07T00:14:26;16.10;99.90
13049;DHT22;6591;51.446;5.404;2023-05-07T00:16:53;16.10;99.90
13049;DHT22;6591;51.446;5.404;2023-05-07T00:19:20;16.60;99.90
13049;DHT22;6591;51.446;5.404;2023-05-07T00:21:48;18.00;99.90
13049;DHT22;6591;51.446;5.404;2023-05-07T00:24:15;16.20;99.90
13049;DHT22;6591;51.446;5.404;2023-05-07T00:26:42;17.00;99.90
13049;DHT22;6591;51.446;5.404;2023-05-07T00:29:09;17.90;99.90
13049;DHT22;6591;51.446;5.404;2023-05-07T00:31:36;17.50;99.90
13049;DHT22;6591;51.446;5.404;2023-05-07T00:34:03;18.10;99.90
13049;DHT22;6591;51.446;5.404;2023-05-07T00:36:30;16.30;99.90
13049;DHT22;6591;51.446;5.404;2023-05-07T00:39:00;16.30;99.90
13049;DHT22;6591;51.446;5.404;2023-05-07T00:41:29;16.30;99.90
13049;DHT22;6591;51.446;5.404;2023-05-07T00:43:57;17.10;99.90
13049;DHT22;6591;51.446;5.404;2023-05-07T00:46:24;16.40;99.90
13049;DHT22;6591;51.446;5.404;2023-05-07T00:48:53;16.50;99.90
13049;DHT22;6591;51.446;5.404;2023-05-07T00:51:21;16.60;99.90
13049;DHT22;6591;51.446;5.404;2023-05-07T00:53:48;16.40;99.90
13049;DHT22;6591;51.446;5.404;2023-05-07T00:56:15;15.90;99.90
13049;DHT22;6591;51.446;5.404;2023-05-07T00:58:43;16.40;99.90
13049;DHT22;6591;51.446;5.404;2023-05-07T01:01:10;16.50;99.90
13049;DHT22;6591;51.446;5.404;2023-05-07T01:03:38;16.50;99.90
13049;DHT22;6591;51.446;5.404;2023-05-07T01:06:07;17.40;99.90
13049;DHT22;6591;51.446;5.404;2023-05-07T01:08:37;16.50;99.90
13049;DHT22;6591;51.446;5.404;2023-05-07T01:11:07;17.40;99.90
13049;DHT22;6591;51.446;5.404;2023-05-07T01:13:35;18.30;99.90
13049;DHT22;6591;51.446;5.404;2023-05-07T01:16:04;16.60;99.90
13049;DHT22;6591;51.446;5.404;2023-05-07T01:18:32;16.60;99.90
13049;DHT22;6591;51.446;5.404;2023-05-07T01:21:01;16.60;99.90
13049;DHT22;6591;51.446;5.404;2023-05-07T01:23:31;16.60;99.90
13049;DHT22;6591;51.446;5.404;2023-05-07T01:26:00;17.10;99.90
13049;DHT22;6591;51.446;5.404;2023-05-07T01:28:29;16.80;99.90
13049;DHT22;6591;51.446;5.404;2023-05-07T01:31:01;17.50;99.90
13049;DHT22;6591;51.446;5.404;2023-05-07T01:33:33;16.60;99.90
13049;DHT22;6591;51.446;5.404;2023-05-07T01:36:03;18.30;99.90
13049;DHT22;6591;51.446;5.404;2023-05-07T01:38:34;16.60;99.90
13049;DHT22;6591;51.446;5.404;2023-05-07T01:41:04;17.00;99.90
13049;DHT22;6591;51.446;5.404;2023-05-07T01:43:31;16.60;99.90
13049;DHT22;6591;51.446;5.404;2023-05-07T01:45:58;16.60;99.90
13049;DHT22;6591;51.446;5.404;2023-05-07T01:48:28;17.60;99.90
13049;DHT22;6591;51.446;5.404;2023-05-07T01:50:55;18.30;99.90
13049;DHT22;6591;51.446;5.404;2023-05-07T01:53:22;16.50;99.90
13049;DHT22;6591;51.446;5.404;2023-05-07T01:55:49;16.50;99.90
13049;DHT22;6591;51.446;5.404;2023-05-07T01:58:16;19.00;99.90
13049;DHT22;6591;51.446;5.404;2023-05-07T02:00:43;16.90;99.90
13049;DHT22;6591;51.446;5.404;2023-05-07T02:03:11;16.50;99.90
13049;DHT22;6591;51.446;5.404;2023-05-07T02:05:50;16.50;99.90
13049;DHT22;6591;51.446;5.404;2023-05-07T02:08:31;16.50;99.90
13049;DHT22;6591;51.446;5.404;2023-05-07T02:10:58;16.40;99.90
13049;DHT22;6591;51.446;5.404;2023-05-07T02:13:28;16.40;99.90
13049;DHT22;6591;51.446;5.404;2023-05-07T02:15:57;17.50;99.90
13049;DHT22;6591;51.446;5.404;2023-05-07T02:18:26;18.00;99.90
13049;DHT22;6591;51.446;5.404;2023-05-07T02:20:53;17.70;99.90
13049;DHT22;6591;51.446;5.404;2023-05-07T02:23:20;17.00;99.90
13049;DHT22;6591;51.446;5.404;2023-05-07T02:25:49;16.40;99.90
13049;DHT22;6591;51.446;5.404;2023-05-07T02:28:16;16.40;99.90
13049;DHT22;6591;51.446;5.404;2023-05-07T02:30:57;17.30;99.90
13049;DHT22;6591;51.446;5.404;2023-05-07T02:33:29;16.40;99.90
13049;DHT22;6591;51.446;5.404;2023-05-07T02:35:57;17.40;99.90
13049;DHT22;6591;51.446;5.404;2023-05-07T02:38:24;16.40;99.90
13049;DHT22;6591;51.446;5.404;2023-05-07T02:40:51;17.80;99.90
13049;DHT22;6591;51.446;5.404;2023-05-07T02:43:18;16.40;99.90
13049;DHT22;6591;51.446;5.404;2023-05-07T02:45:47;16.40;99.90
13049;DHT22;6591;51.446;5.404;2023-05-07T02:48:15;16.40;99.90
13049;DHT22;6591;51.446;5.404;2023-05-07T02:50:42;16.40;99.90
13049;DHT22;6591;51.446;5.404;2023-05-07T02:53:11;16.40;99.90
13049;DHT22;6591;51.446;5.404;2023-05-07T02:55:38;16.90;99.90
13049;DHT22;6591;51.446;5.404;2023-05-07T02:58:05;16.40;99.90
13049;DHT22;6591;51.446;5.404;2023-05-07T03:00:35;16.50;99.90
13049;DHT22;6591;51.446;5.404;2023-05-07T03:03:21;16.40;99.90
13049;DHT22;6591;51.446;5.404;2023-05-07T03:05:48;16.40;99.90
13049;DHT22;6591;51.446;5.404;2023-05-07T03:08:15;16.50;99.90
13049;DHT22;6591;51.446;5.404;2023-05-07T03:10:43;16.60;99.90
13049;DHT22;6591;51.446;5.404;2023-05-07T03:13:10;18.00;99.90
13049;DHT22;6591;51.446;5.404;2023-05-07T03:15:38;16.50;99.90
13049;DHT22;6591;51.446;5.404;2023-05-07T03:18:05;16.40;99.90
13049;DHT22;6591;51.446;5.404;2023-05-07T03:20:32;16.50;99.90
13049;DHT22;6591;51.446;5.404;2023-05-07T03:22:59;16.50;99.90
13049;DHT22;6591;51.446;5.404;2023-05-07T03:25:27;17.80;99.90
13049;DHT22;6591;51.446;5.404;2023-05-07T03:27:56;16.80;99.90
13049;DHT22;6591;51.446;5.404;2023-05-07T03:30:29;17.30;99.90
13049;DHT22;6591;51.446;5.404;2023-05-07T03:32:56;16.50;99.90
13049;DHT22;6591;51.446;5.404;2023-05-07T03:35:23;16.50;99.90
13049;DHT22;6591;51.446;5.404;2023-05-07T03:37:51;16.60;99.90
13049;DHT22;6591;51.446;5.404;2023-05-07T03:40:19;17.80;99.90
13049;DHT22;6591;51.446;5.404;2023-05-07T03:42:50;18.20;99.90
13049;DHT22;6591;51.446;5.404;2023-05-07T03:45:19;18.10;99.90
13049;DHT22;6591;51.446;5.404;2023-05-07T03:47:55;16.50;99.90
13049;DHT22;6591;51.446;5.404;2023-05-07T03:50:23;16.50;99.90
13049;DHT22;6591;51.446;5.404;2023-05-07T03:52:50;16.50;99.90
13049;DHT22;6591;51.446;5.404;2023-05-07T03:55:21;16.50;99.90
13049;DHT22;6591;51.446;5.404;2023-05-07T03:57:52;19.60;99.90
13049;DHT22;6591;51.446;5.404;2023-05-07T04:00:20;16.50;99.90
13049;DHT22;6591;51.446;5.404;2023-05-07T04:02:47;16.50;99.90
13049;DHT22;6591;51.446;5.404;2023-05-07T04:05:21;16.60;99.90
13049;DHT22;6591;51.446;5.404;2023-05-07T04:07:51;16.50;99.90
13049;DHT22;6591;51.446;5.404;2023-05-07T04:10:24;17.50;99.90
13049;DHT22;6591;51.446;5.404;2023-05-07T04:12:54;16.50;99.90
13049;DHT22;6591;51.446;5.404;2023-05-07T04:15:23;16.50;99.90
13049;DHT22;6591;51.446;5.404;2023-05-07T04:17:50;16.50;99.90
13049;DHT22;6591;51.446;5.404;2023-05-07T04:20:20;16.50;99.90
13049;DHT22;6591;51.446;5.404;2023-05-07T04:22:54;16.60;99.90
13049;DHT22;6591;51.446;5.404;2023-05-07T04:25:22;16.60;99.90
13049;DHT22;6591;51.446;5.404;2023-05-07T04:27:57;16.60;99.90
13049;DHT22;6591;51.446;5.404;2023-05-07T04:30:26;16.60;99.90
13049;DHT22;6591;51.446;5.404;2023-05-07T04:32:53;16.60;99.90
13049;DHT22;6591;51.446;5.404;2023-05-07T04:35:22;16.60;99.90
13049;DHT22;6591;51.446;5.404;2023-05-07T04:37:50;16.60;99.90
13049;DHT22;6591;51.446;5.404;2023-05-07T04:40:17;16.70;99.90
13049;DHT22;6591;51.446;5.404;2023-05-07T04:42:44;16.70;99.90
13049;DHT22;6591;51.446;5.404;2023-05-07T04:45:12;16.70;99.90
13049;DHT22;6591;51.446;5.404;2023-05-07T04:47:41;18.50;99.90
13049;DHT22;6591;51.446;5.404;2023-05-07T04:50:09;16.70;99.90
13049;DHT22;6591;51.446;5.404;2023-05-07T04:52:38;16.70;99.90
13049;DHT22;6591;51.446;5.404;2023-05-07T04:55:05;16.90;99.90
13049;DHT22;6591;51.446;5.404;2023-05-07T04:57:37;16.70;99.90
13049;DHT22;6591;51.446;5.404;2023-05-07T05:00:08;18.10;99.90
13049;DHT22;6591;51.446;5.404;2023-05-07T05:02:38;16.90;99.90
13049;DHT22;6591;51.446;5.404;2023-05-07T05:05:05;17.40;99.90
13049;DHT22;6591;51.446;5.404;2023-05-07T05:07:33;16.90;99.90
13049;DHT22;6591;51.446;5.404;2023-05-07T05:10:02;18.20;99.90
13049;DHT22;6591;51.446;5.404;2023-05-07T05:12:33;17.00;99.90
13049;DHT22;6591;51.446;5.404;2023-05-07T05:15:01;17.10;99.90
13049;DHT22;6591;51.446;5.404;2023-05-07T05:17:28;17.10;99.90
13049;DHT22;6591;51.446;5.404;2023-05-07T05:19:55;17.10;99.90
13049;DHT22;6591;51.446;5.404;2023-05-07T05:22:24;17.70;99.90
13049;DHT22;6591;51.446;5.404;2023-05-07T05:24:53;17.10;99.90
13049;DHT22;6591;51.446;5.404;2023-05-07T05:27:21;17.60;99.90
13049;DHT22;6591;51.446;5.404;2023-05-07T05:29:48;17.70;99.90
13049;DHT22;6591;51.446;5.404;2023-05-07T05:32:15;17.70;99.90
13049;DHT22;6591;51.446;5.404;2023-05-07T05:34:43;17.40;99.90
13049;DHT22;6591;51.446;5.404;2023-05-07T05:37:10;17.40;99.90
13049;DHT22;6591;51.446;5.404;2023-05-07T05:39:37;17.60;99.90
13049;DHT22;6591;51.446;5.404;2023-05-07T05:42:05;17.60;99.90
13049;DHT22;6591;51.446;5.404;2023-05-07T05:44:34;17.60;99.90
13049;DHT22;6591;51.446;5.404;2023-05-07T05:47:02;17.70;99.90
13049;DHT22;6591;51.446;5.404;2023-05-07T05:49:30;17.70;99.90
13049;DHT22;6591;51.446;5.404;2023-05-07T05:51:57;19.30;99.90
13049;DHT22;6591;51.446;5.404;2023-05-07T05:54:26;17.90;99.90
13049;DHT22;6591;51.446;5.404;2023-05-07T05:56:53;17.90;99.90
13049;DHT22;6591;51.446;5.404;2023-05-07T05:59:20;18.00;99.90
13049;DHT22;6591;51.446;5.404;2023-05-07T06:01:48;18.10;99.90
13049;DHT22;6591;51.446;5.404;2023-05-07T06:04:16;18.10;99.90
13049;DHT22;6591;51.446;5.404;2023-05-07T06:06:43;18.20;99.90
13049;DHT22;6591;51.446;5.404;2023-05-07T06:09:10;20.80;99.90
13049;DHT22;6591;51.446;5.404;2023-05-07T06:11:41;21.20;99.90
13049;DHT22;6591;51.446;5.404;2023-05-07T06:14:10;19.80;99.90
13049;DHT22;6591;51.446;5.404;2023-05-07T06:16:38;18.60;99.90
13049;DHT22;6591;51.446;5.404;2023-05-07T06:19:06;18.60;99.90
13049;DHT22;6591;51.446;5.404;2023-05-07T06:21:33;19.10;99.90
13049;DHT22;6591;51.446;5.404;2023-05-07T06:24:01;18.80;99.90
13049;DHT22;6591;51.446;5.404;2023-05-07T06:26:28;18.80;99.90
13049;DHT22;6591;51.446;5.404;2023-05-07T06:28:55;19.80;99.90
13049;DHT22;6591;51.446;5.404;2023-05-07T06:31:28;18.90;99.90
13049;DHT22;6591;51.446;5.404;2023-05-07T06:34:01;19.90;99.90
13049;DHT22;6591;51.446;5.404;2023-05-07T06:36:35;19.00;99.90
13049;DHT22;6591;51.446;5.404;2023-05-07T06:39:11;19.20;99.90
13049;DHT22;6591;51.446;5.404;2023-05-07T06:41:38;19.20;99.90
13049;DHT22;6591;51.446;5.404;2023-05-07T06:44:17;19.30;99.90
13049;DHT22;6591;51.446;5.404;2023-05-07T06:46:47;19.30;99.90
13049;DHT22;6591;51.446;5.404;2023-05-07T06:49:15;19.40;99.90
13049;DHT22;6591;51.446;5.404;2023-05-07T06:51:42;20.20;99.90
13049;DHT22;6591;51.446;5.404;2023-05-07T06:54:09;19.60;99.90
13049;DHT22;6591;51.446;5.404;2023-05-07T06:56:38;19.70;99.90
13049;DHT22;6591;51.446;5.404;2023-05-07T06:59:07;20.70;99.90
13049;DHT22;6591;51.446;5.404;2023-05-07T07:01:38;20.00;99.90
13049;DHT22;6591;51.446;5.404;2023-05-07T07:04:06;20.10;99.90
13049;DHT22;6591;51.446;5.404;2023-05-07T07:06:34;20.20;99.90
13049;DHT22;6591;51.446;5.404;2023-05-07T07:09:07;20.30;99.90
13049;DHT22;6591;51.446;5.404;2023-05-07T07:11:34;20.40;99.90
13049;DHT22;6591;51.446;5.404;2023-05-07T07:14:02;20.40;99.90
13049;DHT22;6591;51.446;5.404;2023-05-07T07:16:32;20.50;99.90
13049;DHT22;6591;51.446;5.404;2023-05-07T07:18:59;20.50;99.90
13049;DHT22;6591;51.446;5.404;2023-05-07T07:21:27;21.60;99.90
13049;DHT22;6591;51.446;5.404;2023-05-07T07:23:54;20.60;99.90
13049;DHT22;6591;51.446;5.404;2023-05-07T07:26:21;20.70;99.90
13049;DHT22;6591;51.446;5.404;2023-05-07T07:28:48;20.70;99.90
13049;DHT22;6591;51.446;5.404;2023-05-07T07:31:18;20.80;99.90
13049;DHT22;6591;51.446;5.404;2023-05-07T07:33:47;21.90;99.90
13049;DHT22;6591;51.446;5.404;2023-05-07T07:36:15;20.80;99.90
13049;DHT22;6591;51.446;5.404;2023-05-07T07:38:42;21.20;99.90
13049;DHT22;6591;51.446;5.404;2023-05-07T07:41:09;21.00;99.90
13049;DHT22;6591;51.446;5.404;2023-05-07T07:43:36;20.90;99.90
13049;DHT22;6591;51.446;5.404;2023-05-07T07:46:04;21.00;99.90
13049;DHT22;6591;51.446;5.404;2023-05-07T07:48:32;21.00;99.90
13049;DHT22;6591;51.446;5.404;2023-05-07T07:51:00;21.10;99.90
13049;DHT22;6591;51.446;5.404;2023-05-07T07:53:27;21.10;99.90
13049;DHT22;6591;51.446;5.404;2023-05-07T07:55:55;21.20;99.90
13049;DHT22;6591;51.446;5.404;2023-05-07T07:58:27;21.20;99.90
13049;DHT22;6591;51.446;5.404;2023-05-07T08:00:55;21.30;99.90
13049;DHT22;6591;51.446;5.404;2023-05-07T08:03:23;21.00;99.90
13049;DHT22;6591;51.446;5.404;2023-05-07T08:05:56;21.50;99.90
13049;DHT22;6591;51.446;5.404;2023-05-07T08:08:24;21.60;99.90
13049;DHT22;6591;51.446;5.404;2023-05-07T08:10:53;21.70;99.90
13049;DHT22;6591;51.446;5.404;2023-05-07T08:13:27;21.80;99.90
13049;DHT22;6591;51.446;5.404;2023-05-07T08:15:55;21.90;99.90
13049;DHT22;6591;51.446;5.404;2023-05-07T08:18:22;22.00;99.90
13049;DHT22;6591;51.446;5.404;2023-05-07T08:20:52;22.00;99.90
13049;DHT22;6591;51.446;5.404;2023-05-07T08:23:22;22.20;99.90
13049;DHT22;6591;51.446;5.404;2023-05-07T08:25:50;22.30;99.90
13049;DHT22;6591;51.446;5.404;2023-05-07T08:28:18;22.50;99.90
13049;DHT22;6591;51.446;5.404;2023-05-07T08:30:47;22.60;99.90
13049;DHT22;6591;51.446;5.404;2023-05-07T08:33:15;22.70;99.90
13049;DHT22;6591;51.446;5.404;2023-05-07T08:35:42;22.90;99.90
13049;DHT22;6591;51.446;5.404;2023-05-07T08:38:12;22.90;99.90
13049;DHT22;6591;51.446;5.404;2023-05-07T08:40:40;23.20;99.90
13049;DHT22;6591;51.446;5.404;2023-05-07T08:43:18;23.30;99.90
13049;DHT22;6591;51.446;5.404;2023-05-07T08:45:48;23.50;99.90
13049;DHT22;6591;51.446;5.404;2023-05-07T08:48:22;23.70;99.90
13049;DHT22;6591;51.446;5.404;2023-05-07T08:51:03;23.90;99.90
13049;DHT22;6591;51.446;5.404;2023-05-07T08:53:33;24.00;99.90
13049;DHT22;6591;51.446;5.404;2023-05-07T08:56:00;24.00;99.90
13049;DHT22;6591;51.446;5.404;2023-05-07T08:58:29;24.00;99.90
13049;DHT22;6591;51.446;5.404;2023-05-07T09:00:57;25.00;99.90
13049;DHT22;6591;51.446;5.404;2023-05-07T09:03:27;24.10;99.90
13049;DHT22;6591;51.446;5.404;2023-05-07T09:05:55;24.10;99.90
13049;DHT22;6591;51.446;5.404;2023-05-07T09:08:26;24.20;99.90
13049;DHT22;6591;51.446;5.404;2023-05-07T09:10:56;24.30;99.90
13049;DHT22;6591;51.446;5.404;2023-05-07T09:13:23;24.50;99.90
13049;DHT22;6591;51.446;5.404;2023-05-07T09:15:50;24.60;99.90
13049;DHT22;6591;51.446;5.404;2023-05-07T09:18:19;24.80;99.90
13049;DHT22;6591;51.446;5.404;2023-05-07T09:20:48;24.80;99.90
13049;DHT22;6591;51.446;5.404;2023-05-07T09:23:18;24.90;99.90
13049;DHT22;6591;51.446;5.404;2023-05-07T09:25:45;25.10;99.90
13049;DHT22;6591;51.446;5.404;2023-05-07T09:28:21;25.20;99.90
13049;DHT22;6591;51.446;5.404;2023-05-07T09:30:50;25.40;99.90
13049;DHT22;6591;51.446;5.404;2023-05-07T09:33:17;25.60;99.90
13049;DHT22;6591;51.446;5.404;2023-05-07T09:35:51;25.80;99.90
13049;DHT22;6591;51.446;5.404;2023-05-07T09:38:20;25.90;99.90
13049;DHT22;6591;51.446;5.404;2023-05-07T09:41:09;26.10;99.90
13049;DHT22;6591;51.446;5.404;2023-05-07T09:44:05;26.20;99.90
13049;DHT22;6591;51.446;5.404;2023-05-07T09:46:42;26.30;99.90
13049;DHT22;6591;51.446;5.404;2023-05-07T09:49:22;26.40;99.90
13049;DHT22;6591;51.446;5.404;2023-05-07T09:52:00;26.40;99.90
13049;DHT22;6591;51.446;5.404;2023-05-07T09:54:31;26.50;99.90
13049;DHT22;6591;51.446;5.404;2023-05-07T09:57:01;26.60;99.90
13049;DHT22;6591;51.446;5.404;2023-05-07T09:59:31;26.70;99.90
13049;DHT22;6591;51.446;5.404;2023-05-07T10:02:03;26.80;99.90
13049;DHT22;6591;51.446;5.404;2023-05-07T10:04:39;26.90;99.90
13049;DHT22;6591;51.446;5.404;2023-05-07T10:07:08;27.00;99.90
13049;DHT22;6591;51.446;5.404;2023-05-07T10:09:37;27.00;99.90
13049;DHT22;6591;51.446;5.404;2023-05-07T10:12:14;27.20;99.90
13049;DHT22;6591;51.446;5.404;2023-05-07T10:14:47;27.50;99.90
13049;DHT22;6591;51.446;5.404;2023-05-07T10:17:16;27.40;99.90
13049;DHT22;6591;51.446;5.404;2023-05-07T10:19:45;27.60;99.90
13049;DHT22;6591;51.446;5.404;2023-05-07T10:22:14;27.70;99.90
13049;DHT22;6591;51.446;5.404;2023-05-07T10:24:47;27.90;99.90
13049;DHT22;6591;51.446;5.404;2023-05-07T10:27:20;28.00;98.90
13049;DHT22;6591;51.446;5.404;2023-05-07T10:32:56;28.20;97.10
13049;DHT22;6591;51.446;5.404;2023-05-07T10:35:46;28.30;98.10
13049;DHT22;6591;51.446;5.404;2023-05-07T10:38:15;28.40;97.00
13049;DHT22;6591;51.446;5.404;2023-05-07T10:40:44;28.50;97.80
13049;DHT22;6591;51.446;5.404;2023-05-07T10:43:15;28.50;96.90
13049;DHT22;6591;51.446;5.404;2023-05-07T10:46:14;28.60;97.40
13049;DHT22;6591;51.446;5.404;2023-05-07T10:51:38;28.70;95.30
13049;DHT22;6591;51.446;5.404;2023-05-07T10:54:20;28.80;96.80
13049;DHT22;6591;51.446;5.404;2023-05-07T11:03:09;29.20;96.10
13049;DHT22;6591;51.446;5.404;2023-05-07T11:05:46;29.30;97.20
13049;DHT22;6591;51.446;5.404;2023-05-07T11:08:25;29.50;96.90
13049;DHT22;6591;51.446;5.404;2023-05-07T11:11:00;29.70;97.50
13049;DHT22;6591;51.446;5.404;2023-05-07T11:13:54;29.90;97.50
13049;DHT22;6591;51.446;5.404;2023-05-07T11:16:41;30.20;97.10
13049;DHT22;6591;51.446;5.404;2023-05-07T11:25:26;30.60;94.10
13049;DHT22;6591;51.446;5.404;2023-05-07T11:28:07;30.50;93.70
13049;DHT22;6591;51.446;5.404;2023-05-07T11:30:45;30.40;93.30
13049;DHT22;6591;51.446;5.404;2023-05-07T11:33:20;30.30;93.70
13049;DHT22;6591;51.446;5.404;2023-05-07T11:35:57;30.20;94.20
13049;DHT22;6591;51.446;5.404;2023-05-07T11:38:36;30.40;94.10
13049;DHT22;6591;51.446;5.404;2023-05-07T11:41:04;30.40;93.70
13049;DHT22;6591;51.446;5.404;2023-05-07T11:43:35;30.40;94.60
13049;DHT22;6591;51.446;5.404;2023-05-07T11:46:11;29.60;94.50
13049;DHT22;6591;51.446;5.404;2023-05-07T11:48:41;30.70;94.70
13049;DHT22;6591;51.446;5.404;2023-05-07T11:51:09;30.90;94.60
13049;DHT22;6591;51.446;5.404;2023-05-07T11:53:42;31.10;94.10
13049;DHT22;6591;51.446;5.404;2023-05-07T11:56:11;31.20;93.80
13049;DHT22;6591;51.446;5.404;2023-05-07T11:58:42;31.10;93.60
13049;DHT22;6591;51.446;5.404;2023-05-07T12:01:10;31.20;92.90
13049;DHT22;6591;51.446;5.404;2023-05-07T12:03:44;31.20;92.60
13049;DHT22;6591;51.446;5.404;2023-05-07T12:06:16;30.90;91.00
13049;DHT22;6591;51.446;5.404;2023-05-07T12:08:45;31.10;90.90
13049;DHT22;6591;51.446;5.404;2023-05-07T12:11:22;30.80;91.40
13049;DHT22;6591;51.446;5.404;2023-05-07T12:13:54;30.60;90.10
13049;DHT22;6591;51.446;5.404;2023-05-07T12:16:25;30.30;91.30
13049;DHT22;6591;51.446;5.404;2023-05-07T12:18:53;30.00;90.80
13049;DHT22;6591;51.446;5.404;2023-05-07T12:21:22;29.70;90.50
13049;DHT22;6591;51.446;5.404;2023-05-07T12:23:51;29.40;89.10
13049;DHT22;6591;51.446;5.404;2023-05-07T12:26:20;26.60;85.60
13049;DHT22;6591;51.446;5.404;2023-05-07T12:28:50;28.00;85.00
13049;DHT22;6591;51.446;5.404;2023-05-07T12:31:17;27.00;85.00
13049;DHT22;6591;51.446;5.404;2023-05-07T12:33:44;26.00;87.10
13049;DHT22;6591;51.446;5.404;2023-05-07T12:36:16;24.90;89.80
13049;DHT22;6591;51.446;5.404;2023-05-07T12:38:43;23.90;91.90
13049;DHT22;6591;51.446;5.404;2023-05-07T12:41:11;23.00;93.80
13049;DHT22;6591;51.446;5.404;2023-05-07T12:43:44;22.20;95.70
13049;DHT22;6591;51.446;5.404;2023-05-07T12:46:12;21.50;97.30
13049;DHT22;6591;51.446;5.404;2023-05-07T12:48:44;20.90;98.20
13049;DHT22;6591;51.446;5.404;2023-05-07T12:51:12;20.50;99.30
13049;DHT22;6591;51.446;5.404;2023-05-07T12:53:43;20.10;99.90
13049;DHT22;6591;51.446;5.404;2023-05-07T12:56:10;19.80;99.90
13049;DHT22;6591;51.446;5.404;2023-05-07T12:58:37;19.50;99.90
13049;DHT22;6591;51.446;5.404;2023-05-07T13:01:12;19.40;99.90
13049;DHT22;6591;51.446;5.404;2023-05-07T13:03:48;19.20;99.90
13049;DHT22;6591;51.446;5.404;2023-05-07T13:06:17;19.10;99.90
13049;DHT22;6591;51.446;5.404;2023-05-07T13:08:44;19.10;99.90
13049;DHT22;6591;51.446;5.404;2023-05-07T13:11:11;19.00;99.90
13049;DHT22;6591;51.446;5.404;2023-05-07T13:13:40;19.00;99.90
13049;DHT22;6591;51.446;5.404;2023-05-07T13:16:09;19.00;99.90
13049;DHT22;6591;51.446;5.404;2023-05-07T13:18:39;19.90;99.90
13049;DHT22;6591;51.446;5.404;2023-05-07T13:21:07;19.00;99.90
13049;DHT22;6591;51.446;5.404;2023-05-07T13:23:34;19.10;99.90
13049;DHT22;6591;51.446;5.404;2023-05-07T13:26:01;20.30;99.90
13049;DHT22;6591;51.446;5.404;2023-05-07T13:28:44;19.20;99.90
13049;DHT22;6591;51.446;5.404;2023-05-07T13:31:11;19.30;99.90
13049;DHT22;6591;51.446;5.404;2023-05-07T13:33:45;19.40;99.90
13049;DHT22;6591;51.446;5.404;2023-05-07T13:36:12;19.60;99.90
13049;DHT22;6591;51.446;5.404;2023-05-07T13:38:39;19.70;99.90
13049;DHT22;6591;51.446;5.404;2023-05-07T13:41:07;19.80;99.90
13049;DHT22;6591;51.446;5.404;2023-05-07T13:43:34;19.90;99.90
13049;DHT22;6591;51.446;5.404;2023-05-07T13:46:01;20.20;99.90
13049;DHT22;6591;51.446;5.404;2023-05-07T13:48:28;20.50;99.90
13049;DHT22;6591;51.446;5.404;2023-05-07T13:50:57;20.80;99.90
13049;DHT22;6591;51.446;5.404;2023-05-07T13:53:24;21.20;99.90
13049;DHT22;6591;51.446;5.404;2023-05-07T13:55:51;21.50;99.90
13049;DHT22;6591;51.446;5.404;2023-05-07T13:58:18;21.80;99.90
13049;DHT22;6591;51.446;5.404;2023-05-07T14:00:45;22.20;99.90
13049;DHT22;6591;51.446;5.404;2023-05-07T14:03:12;22.30;99.90
13049;DHT22;6591;51.446;5.404;2023-05-07T14:05:39;22.50;99.90
13049;DHT22;6591;51.446;5.404;2023-05-07T14:08:07;22.60;99.90
13049;DHT22;6591;51.446;5.404;2023-05-07T14:10:34;22.70;99.90
13049;DHT22;6591;51.446;5.404;2023-05-07T14:13:01;22.80;99.90
13049;DHT22;6591;51.446;5.404;2023-05-07T14:15:28;23.50;99.90
13049;DHT22;6591;51.446;5.404;2023-05-07T14:17:56;23.00;99.90
13049;DHT22;6591;51.446;5.404;2023-05-07T14:20:25;23.10;99.90
13049;DHT22;6591;51.446;5.404;2023-05-07T14:22:52;23.10;99.90
13049;DHT22;6591;51.446;5.404;2023-05-07T14:25:19;23.10;99.90
13049;DHT22;6591;51.446;5.404;2023-05-07T14:27:49;23.10;99.90
13049;DHT22;6591;51.446;5.404;2023-05-07T14:30:16;23.00;99.90
13049;DHT22;6591;51.446;5.404;2023-05-07T14:32:43;22.90;99.90
13049;DHT22;6591;51.446;5.404;2023-05-07T14:35:11;22.90;99.90
13049;DHT22;6591;51.446;5.404;2023-05-07T14:37:38;22.90;99.90
13049;DHT22;6591;51.446;5.404;2023-05-07T14:40:06;23.00;99.90
13049;DHT22;6591;51.446;5.404;2023-05-07T14:42:34;22.90;99.90
13049;DHT22;6591;51.446;5.404;2023-05-07T14:45:01;23.00;99.90
13049;DHT22;6591;51.446;5.404;2023-05-07T14:47:29;22.90;99.90
13049;DHT22;6591;51.446;5.404;2023-05-07T14:49:56;23.00;99.90
13049;DHT22;6591;51.446;5.404;2023-05-07T14:52:23;23.00;99.90
13049;DHT22;6591;51.446;5.404;2023-05-07T14:54:54;23.00;99.90
13049;DHT22;6591;51.446;5.404;2023-05-07T14:57:21;23.00;99.90
13049;DHT22;6591;51.446;5.404;2023-05-07T14:59:48;22.90;99.90
13049;DHT22;6591;51.446;5.404;2023-05-07T15:02:16;23.00;99.90
13049;DHT22;6591;51.446;5.404;2023-05-07T15:04:47;23.00;99.90
13049;DHT22;6591;51.446;5.404;2023-05-07T15:07:19;22.90;99.90
13049;DHT22;6591;51.446;5.404;2023-05-07T15:09:46;22.80;99.90
13049;DHT22;6591;51.446;5.404;2023-05-07T15:12:15;22.80;99.90
13049;DHT22;6591;51.446;5.404;2023-05-07T15:14:42;22.80;99.90
13049;DHT22;6591;51.446;5.404;2023-05-07T15:17:10;22.80;99.90
13049;DHT22;6591;51.446;5.404;2023-05-07T15:19:37;22.80;99.90
13049;DHT22;6591;51.446;5.404;2023-05-07T15:22:05;22.90;99.90
13049;DHT22;6591;51.446;5.404;2023-05-07T15:24:34;23.00;99.90
13049;DHT22;6591;51.446;5.404;2023-05-07T15:27:01;23.00;99.90
13049;DHT22;6591;51.446;5.404;2023-05-07T15:29:30;23.10;99.90
13049;DHT22;6591;51.446;5.404;2023-05-07T15:31:59;23.10;99.90
13049;DHT22;6591;51.446;5.404;2023-05-07T15:34:27;23.70;99.90
13049;DHT22;6591;51.446;5.404;2023-05-07T15:36:55;21.40;99.90
13049;DHT22;6591;51.446;5.404;2023-05-07T15:39:25;23.30;99.90
13049;DHT22;6591;51.446;5.404;2023-05-07T15:41:56;23.30;99.90
13049;DHT22;6591;51.446;5.404;2023-05-07T15:44:25;23.40;99.90
13049;DHT22;6591;51.446;5.404;2023-05-07T15:46:56;23.30;99.90
13049;DHT22;6591;51.446;5.404;2023-05-07T15:49:25;23.30;99.90
13049;DHT22;6591;51.446;5.404;2023-05-07T15:51:55;23.40;99.90
13049;DHT22;6591;51.446;5.404;2023-05-07T15:54:24;21.80;99.90
13049;DHT22;6591;51.446;5.404;2023-05-07T15:56:52;23.40;99.90
13049;DHT22;6591;51.446;5.404;2023-05-07T15:59:19;23.50;99.90
13049;DHT22;6591;51.446;5.404;2023-05-07T16:01:46;23.70;99.90
13049;DHT22;6591;51.446;5.404;2023-05-07T16:04:16;23.90;99.90
13049;DHT22;6591;51.446;5.404;2023-05-07T16:06:43;24.00;99.90
13049;DHT22;6591;51.446;5.404;2023-05-07T16:09:13;24.30;99.90
13049;DHT22;6591;51.446;5.404;2023-05-07T16:11:41;24.50;99.90
13049;DHT22;6591;51.446;5.404;2023-05-07T16:14:08;24.60;99.90
13049;DHT22;6591;51.446;5.404;2023-05-07T16:16:35;23.60;99.90
13049;DHT22;6591;51.446;5.404;2023-05-07T16:19:03;24.90;99.90